Time;durP1;ratioP1;P1;durP2;ratioP2;P2;SDS_P1;SDS_P2;PMS_P1;PMS_P2;Temp;Humidity;BMP_temperature;BMP_pressure;BME280_temperature;BME280_humidity;BME280_pressure;Samples;Min_cycle;Max_cycle;Signal;HPM_P1;HPM_P2
2022/12/09 00:02:04;;;;;;;;;32.00;24.00;;;;;6.54;65.24;99940.59;6148368;23;46605;-78
2022/12/09 00:04:30;;;;;;;;;27.00;24.50;;;;;6.52;65.34;99938.13;6148448;23;45790;-80
2022/12/09 00:06:55;;;;;;;;;31.75;26.25;;;;;6.43;65.36;99925.69;6147736;23;45641;-80
2022/12/09 00:09:21;;;;;;;;;31.00;27.50;;;;;6.49;65.36;99930.50;6148411;23;45811;-79
2022/12/09 00:15:09;;;;;;;;;27.75;23.25;;;;;6.39;65.45;99908.63;6148342;23;45487;-81
2022/12/09 00:17:34;;;;;;;;;28.25;25.25;;;;;6.37;65.77;99910.47;6147145;23;45644;-80
2022/12/09 00:19:59;;;;;;;;;30.00;23.00;;;;;6.39;65.75;99915.59;6148541;23;45806;-80
2022/12/09 00:22:26;;;;;;;;;34.25;25.00;;;;;6.26;65.36;99895.56;6148349;23;46356;-80
2022/12/09 00:24:51;;;;;;;;;27.00;21.25;;;;;6.43;65.50;99923.09;6148170;23;45845;-79
2022/12/09 00:30:38;;;;;;;;;34.00;28.00;;;;;6.42;65.55;99920.63;6148126;23;45444;-80
2022/12/09 00:33:03;;;;;;;;;31.25;26.25;;;;;6.35;65.59;99904.56;6147927;23;46329;-80
2022/12/09 00:35:28;;;;;;;;;23.00;20.25;;;;;6.31;65.66;99903.09;6147976;23;46105;-79
2022/12/09 00:37:54;;;;;;;;;21.50;20.00;;;;;6.25;65.50;99890.50;6148149;23;45691;-80
2022/12/09 00:40:20;;;;;;;;;23.75;20.00;;;;;6.39;65.66;99907.78;6148433;23;45971;-79
2022/12/09 00:42:45;;;;;;;;;25.25;23.25;;;;;6.32;65.67;99897.78;6148319;23;46372;-80
2022/12/09 00:45:11;;;;;;;;;28.75;23.25;;;;;6.35;65.57;99909.78;6148708;23;45613;-80
2022/12/09 00:47:36;;;;;;;;;31.00;26.75;;;;;6.36;65.84;99908.00;6150271;23;45688;-79
2022/12/09 00:50:02;;;;;;;;;28.00;21.75;;;;;6.35;66.03;99907.16;6150896;23;45666;-80
2022/12/09 00:52:27;;;;;;;;;33.00;30.50;;;;;6.27;66.11;99894.66;6148600;23;47690;-79
2022/12/09 00:54:53;;;;;;;;;30.50;26.25;;;;;6.27;66.21;99886.00;6147849;23;46218;-80
2022/12/09 01:00:40;;;;;;;;;35.00;26.25;;;;;6.30;66.73;99886.66;6147547;23;45916;-80
2022/12/09 01:03:06;;;;;;;;;30.00;26.00;;;;;6.21;66.68;99878.59;6148037;23;45845;-79
2022/12/09 01:05:35;;;;;;;;;37.25;29.50;;;;;6.28;66.90;99887.69;6147931;23;45959;-80
2022/12/09 01:08:00;;;;;;;;;44.75;32.00;;;;;6.26;66.88;99890.38;6147744;23;45469;-80
2022/12/09 01:10:25;;;;;;;;;35.00;27.00;;;;;6.25;66.63;99886.13;6147958;23;45527;-79
2022/12/09 01:16:20;;;;;;;;;29.25;27.00;;;;;6.18;67.29;99877.03;6147494;23;45647;-81
2022/12/09 01:18:47;;;;;;;;;34.50;28.00;;;;;6.22;67.07;99888.06;6147569;23;45722;-81
2022/12/09 01:21:13;;;;;;;;;36.25;30.75;;;;;6.10;67.74;99881.09;6148104;23;45566;-80
2022/12/09 01:23:39;;;;;;;;;33.50;29.50;;;;;6.10;67.41;99878.50;6147681;23;45590;-80
2022/12/09 01:26:06;;;;;;;;;31.25;28.25;;;;;6.07;67.61;99881.25;6147576;23;46721;-79
2022/12/09 01:28:33;;;;;;;;;35.25;31.00;;;;;6.06;67.36;99888.22;6120273;23;45585;-79
2022/12/09 01:31:14;;;;;;;;;35.00;29.50;;;;;6.06;67.50;99900.38;6147715;23;45745;-81
2022/12/09 01:33:39;;;;;;;;;34.25;27.00;;;;;6.03;68.09;99891.03;6147921;23;45538;-79
2022/12/09 01:36:08;;;;;;;;;38.50;29.75;;;;;6.02;68.14;99886.75;6147623;23;45787;-80
2022/12/09 01:38:33;;;;;;;;;39.50;32.50;;;;;6.01;67.95;99887.69;6147013;23;45921;-78
2022/12/09 01:40:59;;;;;;;;;34.25;30.75;;;;;5.99;67.74;99883.53;6147248;23;45479;-81
2022/12/09 01:43:24;;;;;;;;;34.50;29.00;;;;;6.01;67.71;99885.09;6121195;23;47180;-79
2022/12/09 01:45:50;;;;;;;;;35.50;30.25;;;;;6.02;68.31;99893.72;6146794;23;46137;-79
2022/12/09 01:48:18;;;;;;;;;37.00;30.00;;;;;5.95;68.05;99876.84;6147130;23;45736;-78
2022/12/09 01:50:49;;;;;;;;;43.50;32.75;;;;;5.92;67.99;99874.44;6147779;23;45652;-80
2022/12/09 01:53:17;;;;;;;;;31.75;25.50;;;;;6.00;67.95;99885.19;6122127;23;46489;-79
2022/12/09 01:55:43;;;;;;;;;37.75;30.00;;;;;5.99;68.18;99889.56;6148195;23;45896;-81
2022/12/09 02:01:30;;;;;;;;;45.75;31.50;;;;;5.94;68.26;99886.41;6147947;23;45665;-81
2022/12/09 02:03:56;;;;;;;;;42.25;33.25;;;;;5.97;68.24;99895.78;6147438;23;46771;-79
2022/12/09 02:06:21;;;;;;;;;47.75;31.00;;;;;5.93;68.15;99883.94;6148198;23;45614;-80
2022/12/09 02:08:48;;;;;;;;;35.00;27.75;;;;;5.93;68.59;99882.16;6147634;23;45741;-80
2022/12/09 02:11:38;;;;;;;;;39.50;30.25;;;;;5.94;68.14;99883.00;6147987;23;45710;-79
2022/12/09 02:14:13;;;;;;;;;31.75;25.25;;;;;5.93;68.38;99883.94;6148053;23;46437;-80
2022/12/09 02:16:54;;;;;;;;;29.25;23.75;;;;;5.83;68.63;99868.84;6147372;23;45501;-79
2022/12/09 02:19:39;;;;;;;;;44.25;33.00;;;;;5.92;68.36;99883.09;6147168;23;45680;-80
2022/12/09 02:22:07;;;;;;;;;36.00;30.25;;;;;5.92;68.54;99882.25;6147504;23;45687;-79
2022/12/09 02:24:40;;;;;;;;;38.00;29.50;;;;;5.89;68.78;99878.06;6147011;23;45769;-78
2022/12/09 02:27:19;;;;;;;;;38.50;30.50;;;;;5.85;68.67;99873.97;6146603;23;46802;-80
2022/12/09 02:29:57;;;;;;;;;30.50;27.00;;;;;5.83;68.61;99868.84;6147164;23;45527;-80
2022/12/09 02:32:25;;;;;;;;;35.00;29.00;;;;;5.82;68.30;99863.78;6146585;23;45536;-79
2022/12/09 02:35:08;;;;;;;;;50.75;31.75;;;;;5.80;68.86;99863.88;6147300;23;45730;-77
2022/12/09 02:37:48;;;;;;;;;35.75;29.00;;;;;5.82;68.63;99863.78;6146587;23;46299;-79
2022/12/09 02:40:25;;;;;;;;;39.75;35.00;;;;;5.68;68.58;99835.22;6147650;23;45543;-79
2022/12/09 02:42:55;;;;;;;;;40.00;32.00;;;;;5.80;68.76;99858.66;6148324;23;45649;-80
2022/12/09 02:45:23;;;;;;;;;33.00;26.00;;;;;5.76;68.77;99854.59;6148081;23;45702;-80
2022/12/09 02:47:51;;;;;;;;;42.25;33.00;;;;;5.67;69.11;99831.78;6147474;23;46997;-79
2022/12/09 02:50:22;;;;;;;;;37.00;27.25;;;;;5.62;68.81;99833.00;6148365;23;45590;-78
2022/12/09 02:52:50;;;;;;;;;37.50;29.75;;;;;5.72;68.88;99853.09;6148628;23;45472;-77
2022/12/09 02:55:19;;;;;;;;;35.50;29.00;;;;;5.70;68.99;99854.16;6121356;23;48233;-79
2022/12/09 02:57:46;;;;;;;;;30.50;24.00;;;;;5.68;69.15;99851.66;6148120;23;46219;-79
2022/12/09 03:00:13;;;;;;;;;35.25;28.75;;;;;5.67;69.31;99860.38;6148382;23;45507;-79
2022/12/09 03:02:43;;;;;;;;;35.75;28.25;;;;;5.58;69.19;99842.75;6148856;23;45646;-80
2022/12/09 03:05:26;;;;;;;;;39.75;32.00;;;;;5.60;69.57;99856.50;6148600;23;45596;-77
2022/12/09 03:07:58;;;;;;;;;33.50;29.25;;;;;5.56;69.23;99865.41;6148122;23;45685;-79
2022/12/09 03:10:34;;;;;;;;;38.00;32.00;;;;;5.51;69.24;99864.84;6148132;23;45963;-81
2022/12/09 03:13:25;;;;;;;;;36.00;27.50;;;;;5.49;69.09;99866.72;6148355;23;45697;-79
2022/12/09 03:16:02;;;;;;;;;31.50;24.00;;;;;5.45;69.17;99857.47;6148487;23;46209;-79
2022/12/09 03:18:30;;;;;;;;;31.75;27.25;;;;;5.36;69.47;99845.88;6121812;23;47256;-78
2022/12/09 03:20:56;;;;;;;;;32.25;24.75;;;;;5.33;68.88;99843.47;6150426;23;45601;-78
2022/12/09 03:23:25;;;;;;;;;36.75;29.00;;;;;5.33;69.51;99842.63;6148340;23;45727;-79
2022/12/09 03:25:53;;;;;;;;;30.75;24.75;;;;;5.32;69.10;99841.78;6147651;23;47370;-79
2022/12/09 03:28:47;;;;;;;;;27.50;22.25;;;;;5.31;68.92;99850.50;6120499;23;46291;-78
2022/12/09 03:31:17;;;;;;;;;28.00;22.50;;;;;5.29;69.17;99854.94;6143324;23;45720;-80
2022/12/09 03:33:46;;;;;;;;;26.75;22.75;;;;;5.15;68.99;99833.38;6148360;23;45772;-80
2022/12/09 03:36:15;;;;;;;;;26.00;23.00;;;;;5.12;68.91;99828.38;6121622;23;48464;-78
2022/12/09 03:38:44;;;;;;;;;24.25;20.25;;;;;5.23;69.23;99852.75;6147718;23;46600;-80
2022/12/09 03:41:17;;;;;;;;;20.75;17.00;;;;;5.23;68.79;99844.97;6147614;23;46060;-78
2022/12/09 03:43:50;;;;;;;;;25.75;21.75;;;;;5.19;68.75;99840.88;6148479;23;45760;-79
2022/12/09 03:46:16;;;;;;;;;23.25;18.50;;;;;5.19;68.81;99838.28;6147583;23;46294;-79
2022/12/09 03:48:42;;;;;;;;;30.50;22.00;;;;;5.22;69.21;99834.66;6146909;23;46034;-79
2022/12/09 03:51:26;;;;;;;;;28.00;23.25;;;;;5.23;68.80;99832.00;6148391;23;45982;-77
2022/12/09 03:54:02;;;;;;;;;25.00;21.50;;;;;5.24;69.01;99831.03;6148434;23;45923;-80
2022/12/09 03:56:32;;;;;;;;;25.75;19.00;;;;;5.23;68.93;99832.00;6147933;23;46451;-79
2022/12/09 03:59:02;;;;;;;;;21.00;18.50;;;;;5.24;68.93;99838.81;6121822;23;46878;-79
2022/12/09 04:01:31;;;;;;;;;27.50;21.75;;;;;5.24;69.23;99845.78;6147460;23;45859;-79
2022/12/09 04:03:56;;;;;;;;;29.50;21.00;;;;;5.23;68.93;99836.34;6148309;23;45562;-80
2022/12/09 04:06:22;;;;;;;;;25.75;18.50;;;;;5.21;68.75;99826.03;6147910;23;45783;-79
2022/12/09 04:08:48;;;;;;;;;26.00;18.75;;;;;5.14;69.02;99822.16;6120504;23;46614;-79
2022/12/09 04:11:13;;;;;;;;;31.50;23.00;;;;;5.20;68.57;99826.13;6148007;23;45712;-79
2022/12/09 04:13:39;;;;;;;;;24.75;21.75;;;;;5.18;68.65;99818.47;6148233;23;45634;-78
2022/12/09 04:16:04;;;;;;;;;22.50;17.00;;;;;5.12;68.82;99813.63;6147157;23;47056;-79
2022/12/09 04:18:30;;;;;;;;;27.00;19.00;;;;;5.14;68.90;99816.13;6146681;23;46221;-78
2022/12/09 04:20:55;;;;;;;;;26.25;23.00;;;;;5.13;68.75;99815.28;6147555;23;45558;-79
2022/12/09 04:23:21;;;;;;;;;29.75;24.75;;;;;5.06;68.53;99803.63;6148272;23;45571;-79
2022/12/09 04:25:47;;;;;;;;;26.00;21.25;;;;;5.07;68.45;99811.28;6147253;23;45847;-79
2022/12/09 04:28:12;;;;;;;;;25.25;21.75;;;;;5.08;68.57;99810.38;6146552;23;46121;-79
2022/12/09 04:30:37;;;;;;;;;29.75;22.25;;;;;5.08;68.41;99806.94;6147307;23;45722;-79
2022/12/09 04:33:03;;;;;;;;;27.00;22.50;;;;;5.06;68.92;99806.22;6148187;23;45661;-79
2022/12/09 04:35:28;;;;;;;;;25.00;19.25;;;;;5.05;68.85;99801.94;6148010;23;45613;-79
2022/12/09 04:37:54;;;;;;;;;31.50;19.50;;;;;4.91;68.81;99789.81;6147300;23;45826;-79
2022/12/09 04:40:19;;;;;;;;;30.00;21.50;;;;;5.00;68.77;99810.03;6147019;23;45628;-80
2022/12/09 04:42:45;;;;;;;;;30.50;23.50;;;;;4.91;68.64;99802.78;6148483;23;45738;-79
2022/12/09 04:48:46;;;;;;;;;24.00;18.75;;;;;4.80;68.59;99794.84;6142036;23;46053;-79
2022/12/09 04:51:13;;;;;;;;;24.25;19.50;;;;;4.90;68.70;99826.25;6148225;23;45550;-80
2022/12/09 04:53:40;;;;;;;;;26.75;21.75;;;;;4.80;68.65;99801.78;6148268;23;45560;-79
2022/12/09 04:56:18;;;;;;;;;25.00;19.00;;;;;4.83;68.54;99812.81;6147069;23;46850;-77
2022/12/09 04:58:43;;;;;;;;;22.75;20.00;;;;;4.81;68.52;99801.66;6147283;23;46125;-79
2022/12/09 05:01:12;;;;;;;;;30.50;22.50;;;;;4.73;68.75;99795.28;6148263;23;45608;-78
2022/12/09 05:03:38;;;;;;;;;28.50;25.25;;;;;4.81;68.43;99816.41;6147469;23;45626;-79
2022/12/09 05:06:11;;;;;;;;;26.00;24.00;;;;;4.80;68.92;99822.53;6147520;23;47240;-79
2022/12/09 05:08:37;;;;;;;;;27.25;20.75;;;;;4.77;68.40;99807.97;6146618;23;47222;-78
2022/12/09 05:11:03;;;;;;;;;28.00;18.00;;;;;4.72;68.62;99809.19;6147918;23;45500;-78
2022/12/09 05:13:29;;;;;;;;;27.00;23.75;;;;;4.64;68.54;99801.88;6147655;23;45721;-79
2022/12/09 05:16:00;;;;;;;;;22.50;21.50;;;;;4.72;68.31;99814.38;6147994;23;45856;-80
2022/12/09 05:18:26;;;;;;;;;23.50;22.25;;;;;4.69;68.24;99815.41;6147522;23;46271;-79
2022/12/09 05:20:51;;;;;;;;;26.25;19.00;;;;;4.70;68.32;99818.84;6147540;23;46082;-79
2022/12/09 05:23:17;;;;;;;;;27.00;21.75;;;;;4.65;68.44;99812.13;6148197;23;45513;-78
2022/12/09 05:25:42;;;;;;;;;27.75;23.75;;;;;4.73;68.61;99824.66;6148619;23;46121;-79
2022/12/09 05:28:07;;;;;;;;;23.50;21.00;;;;;4.72;68.42;99814.38;6120800;23;47042;-78
2022/12/09 05:33:56;;;;;;;;;31.00;23.25;;;;;4.65;68.48;99825.09;6148272;23;45577;-77
2022/12/09 05:36:23;;;;;;;;;27.50;22.50;;;;;4.62;68.47;99820.13;6148928;23;46802;-78
2022/12/09 05:38:50;;;;;;;;;25.75;21.25;;;;;4.61;68.15;99821.03;6148397;23;46739;-79
2022/12/09 05:41:16;;;;;;;;;25.00;22.00;;;;;4.58;68.25;99820.41;6149752;23;45625;-80
2022/12/09 05:43:42;;;;;;;;;22.25;17.75;;;;;4.54;68.10;99816.28;6151469;23;45741;-79
2022/12/09 05:46:07;;;;;;;;;23.25;21.25;;;;;4.57;67.86;99822.16;6149811;23;45512;-78
2022/12/09 05:48:33;;;;;;;;;22.50;18.25;;;;;4.58;67.97;99821.22;6149203;23;46108;-79
2022/12/09 05:51:15;;;;;;;;;20.25;17.50;;;;;4.46;67.75;99811.56;6152193;23;45556;-79
2022/12/09 05:53:41;;;;;;;;;27.25;20.50;;;;;4.47;67.97;99810.66;6153164;23;45560;-79
2022/12/09 05:56:06;;;;;;;;;20.25;19.50;;;;;4.38;67.82;99795.63;6150176;23;46303;-79
2022/12/09 05:58:32;;;;;;;;;19.50;17.25;;;;;4.54;67.71;99827.50;6148141;23;46034;-78
2022/12/09 06:04:19;;;;;;;;;19.25;18.75;;;;;4.50;67.48;99831.22;6148925;23;45526;-80
2022/12/09 06:06:44;;;;;;;;;27.25;23.25;;;;;4.48;67.39;99837.41;6148100;23;46400;-79
2022/12/09 06:09:11;;;;;;;;;27.75;21.00;;;;;4.35;67.59;99818.31;6149673;23;45769;-80
2022/12/09 06:11:37;;;;;;;;;20.75;17.00;;;;;4.31;67.32;99820.25;6148798;23;45781;-79
2022/12/09 06:14:05;;;;;;;;;17.25;14.25;;;;;4.31;67.34;99828.03;6150193;23;45494;-79
2022/12/09 06:16:31;;;;;;;;;21.00;16.50;;;;;4.33;67.60;99844.31;6150532;23;45824;-79
2022/12/09 06:18:56;;;;;;;;;22.25;17.25;;;;;4.32;67.34;99845.22;6149277;23;45743;-79
2022/12/09 06:21:21;;;;;;;;;18.75;17.00;;;;;4.16;67.32;99831.47;6148653;23;45621;-78
2022/12/09 06:23:48;;;;;;;;;23.25;20.00;;;;;4.26;67.36;99845.59;6152087;23;45694;-79
2022/12/09 06:26:25;;;;;;;;;21.25;17.00;;;;;4.26;67.50;99858.56;6154071;23;46572;-80
2022/12/09 06:28:52;;;;;;;;;21.50;17.25;;;;;4.22;67.19;99857.88;6152292;23;46089;-78
2022/12/09 06:34:39;;;;;;;;;23.75;17.00;;;;;4.18;66.96;99866.78;6151383;23;45607;-79
2022/12/09 06:37:04;;;;;;;;;24.25;17.50;;;;;4.15;67.03;99861.78;6148687;23;45594;-79
2022/12/09 06:39:29;;;;;;;;;25.00;20.00;;;;;4.10;67.14;99862.94;6148443;23;45779;-78
2022/12/09 06:41:55;;;;;;;;;14.75;14.75;;;;;4.09;67.11;99850.91;6121800;23;45647;-78
2022/12/09 06:44:20;;;;;;;;;23.50;15.50;;;;;4.09;67.01;99856.09;6148812;23;45582;-79
2022/12/09 06:50:08;;;;;;;;;17.25;16.25;;;;;4.01;66.80;99853.09;6141898;23;45965;-78
2022/12/09 06:52:34;;;;;;;;;21.25;17.75;;;;;3.98;66.97;99861.03;6148376;23;45871;-79
2022/12/09 06:54:59;;;;;;;;;17.00;15.00;;;;;3.93;66.77;99857.88;6148886;23;45528;-80
2022/12/09 06:57:25;;;;;;;;;19.00;17.00;;;;;3.77;66.64;99835.41;6148418;23;45822;-80
2022/12/09 06:59:50;;;;;;;;;23.25;18.25;;;;;3.86;66.91;99852.19;6148007;23;45696;-81
2022/12/09 07:02:16;;;;;;;;;23.00;17.00;;;;;3.83;66.80;99854.13;6148809;23;45766;-80
2022/12/09 07:04:41;;;;;;;;;19.75;17.50;;;;;3.86;66.74;99864.31;6148897;23;45749;-80
2022/12/09 07:07:09;;;;;;;;;19.50;15.50;;;;;3.86;66.55;99864.31;6148169;23;46519;-80
2022/12/09 07:09:35;;;;;;;;;20.00;17.75;;;;;3.85;66.72;99862.63;6148138;23;46544;-80
2022/12/09 07:12:00;;;;;;;;;20.50;18.25;;;;;3.84;66.97;99860.97;6121550;23;45857;-80
2022/12/09 07:14:26;;;;;;;;;20.00;18.50;;;;;3.85;66.98;99862.63;6146961;23;45635;-77
2022/12/09 07:20:13;;;;;;;;;24.25;19.50;;;;;3.79;66.81;99856.03;6148102;23;46201;-78
2022/12/09 07:22:38;;;;;;;;;22.25;19.25;;;;;3.86;66.55;99870.34;6147089;23;45535;-78
2022/12/09 07:25:04;;;;;;;;;22.25;14.75;;;;;3.85;67.07;99873.00;6147895;23;45836;-79
2022/12/09 07:27:29;;;;;;;;;18.00;15.25;;;;;3.78;66.63;99875.94;6147927;23;46327;-78
2022/12/09 07:29:56;;;;;;;;;22.75;18.75;;;;;3.80;66.69;99878.44;6147596;23;45685;-78
2022/12/09 07:35:42;;;;;;;;;20.25;14.25;;;;;3.79;66.68;99885.38;6148463;23;46100;-77
2022/12/09 07:38:11;;;;;;;;;14.75;12.50;;;;;3.78;66.46;99875.94;6147591;23;45578;-79
2022/12/09 07:40:39;;;;;;;;;21.75;18.25;;;;;3.74;66.55;99874.44;6148159;23;46165;-77
2022/12/09 07:43:06;;;;;;;;;17.50;15.75;;;;;3.80;66.64;99881.03;6148193;23;45875;-78
2022/12/09 07:45:35;;;;;;;;;22.75;14.00;;;;;3.69;66.63;99862.66;6148148;23;45733;-78
2022/12/09 07:48:00;;;;;;;;;21.75;18.00;;;;;3.76;66.37;99876.94;6147395;23;45676;-77
2022/12/09 07:50:25;;;;;;;;;20.50;17.50;;;;;3.79;66.19;99884.53;6147291;23;45845;-77
2022/12/09 07:52:51;;;;;;;;;17.25;15.00;;;;;3.77;66.23;99882.03;6147725;23;45725;-77
2022/12/09 07:55:16;;;;;;;;;15.75;13.25;;;;;3.61;66.01;99867.44;6145521;23;45551;-77
2022/12/09 07:57:41;;;;;;;;;13.50;12.00;;;;;3.77;66.03;99881.22;6147091;23;46238;-77
2022/12/09 08:00:08;;;;;;;;;16.50;12.75;;;;;3.77;65.97;99887.22;6148400;23;45525;-78
2022/12/09 08:05:55;;;;;;;;;17.25;14.75;;;;;3.80;65.82;99900.00;6147601;23;45586;-78
2022/12/09 08:08:20;;;;;;;;;25.75;19.75;;;;;3.80;65.78;99893.97;6147282;23;45624;-77
2022/12/09 08:10:45;;;;;;;;;18.00;16.75;;;;;3.80;65.76;99893.97;6147567;23;45870;-77
2022/12/09 08:13:11;;;;;;;;;19.25;16.25;;;;;3.79;65.94;99889.72;6147494;23;45796;-76
2022/12/09 08:15:37;;;;;;;;;15.50;13.00;;;;;3.78;65.97;99904.41;6148166;23;45664;-77
2022/12/09 08:21:29;;;;;;;;;20.00;17.50;;;;;3.79;65.88;99887.97;6147662;23;46086;-77
2022/12/09 08:23:57;;;;;;;;;17.00;16.50;;;;;3.71;65.72;99877.19;6147641;23;45852;-78
2022/12/09 08:26:24;;;;;;;;;20.00;15.50;;;;;3.77;65.61;99888.97;6147016;23;45905;-78
2022/12/09 08:28:52;;;;;;;;;21.50;17.75;;;;;3.76;65.61;99889.91;6147165;23;47491;-78
2022/12/09 08:31:21;;;;;;;;;21.75;18.75;;;;;3.74;65.53;99902.91;6146985;23;46020;-76
2022/12/09 08:33:47;;;;;;;;;24.50;17.00;;;;;3.71;65.60;99892.75;6146137;23;45625;-76
2022/12/09 08:36:15;;;;;;;;;18.00;14.00;;;;;3.69;65.55;99894.56;6146561;23;45792;-76
2022/12/09 08:38:41;;;;;;;;;19.75;15.25;;;;;3.64;65.58;99895.72;6146193;23;46232;-76
2022/12/09 08:41:36;;;;;;;;;19.75;14.00;;;;;3.65;65.77;99900.84;6119802;23;45520;-77
2022/12/09 08:44:02;;;;;;;;;21.50;18.50;;;;;3.63;65.67;99899.22;6148291;23;45586;-76
2022/12/09 08:46:27;;;;;;;;;21.33;20.00;;;;;3.63;65.91;99899.22;6146674;23;45617;-76
2022/12/09 08:48:52;;;;;;;;;21.75;19.75;;;;;3.58;65.68;99890.88;6147293;23;46450;-76
2022/12/09 08:51:18;;;;;;;;;22.75;18.75;;;;;3.63;65.78;99899.22;6147164;23;46794;-76
2022/12/09 08:53:43;;;;;;;;;18.75;17.25;;;;;3.58;65.67;99898.66;6146508;23;45426;-75
2022/12/09 08:56:13;;;;;;;;;22.75;19.75;;;;;3.63;65.78;99900.06;6146904;23;45487;-77
2022/12/09 08:58:39;;;;;;;;;17.50;15.25;;;;;3.61;65.63;99904.53;6147063;23;45883;-78
2022/12/09 09:01:06;;;;;;;;;30.00;25.00;;;;;3.62;65.91;99907.91;6146790;23;47032;-76
2022/12/09 09:06:53;;;;;;;;;17.75;13.75;;;;;3.60;66.06;99908.03;6147064;23;45780;-77
2022/12/09 09:09:20;;;;;;;;;23.50;22.25;;;;;3.57;65.90;99894.38;6146922;23;47372;-77
2022/12/09 09:11:46;;;;;;;;;22.50;20.25;;;;;3.59;65.98;99889.97;6120140;23;46088;-76
2022/12/09 09:14:13;;;;;;;;;21.75;19.75;;;;;3.56;65.91;99890.97;6146579;23;46011;-77
2022/12/09 09:16:41;;;;;;;;;22.00;20.50;;;;;3.60;66.13;99894.22;6146600;23;45515;-75
2022/12/09 09:19:06;;;;;;;;;26.00;23.25;;;;;3.71;65.86;99913.47;6146394;23;46460;-76
2022/12/09 09:21:33;;;;;;;;;25.75;22.75;;;;;3.75;65.77;99914.13;6146616;23;46106;-75
2022/12/09 09:23:59;;;;;;;;;32.50;28.75;;;;;3.77;65.93;99918.31;6147850;23;45863;-75
2022/12/09 09:26:26;;;;;;;;;37.00;31.25;;;;;3.77;66.02;99920.91;6146064;23;45589;-75
2022/12/09 09:28:53;;;;;;;;;35.00;24.50;;;;;3.67;66.25;99904.16;6146299;23;47254;-74
2022/12/09 09:31:20;;;;;;;;;27.50;24.50;;;;;3.78;65.99;99919.97;6120325;23;47288;-74
2022/12/09 09:37:08;;;;;;;;;31.00;23.75;;;;;3.77;65.94;99920.91;6146852;23;45607;-76
2022/12/09 09:39:33;;;;;;;;;26.75;24.50;;;;;3.78;65.85;99916.53;6146817;23;45580;-76
2022/12/09 09:42:02;;;;;;;;;29.75;24.00;;;;;3.80;66.13;99907.78;6096035;23;46771;-76
2022/12/09 09:44:27;;;;;;;;;31.00;25.25;;;;;3.82;66.01;99910.28;6146468;23;45791;-75
2022/12/09 09:46:54;;;;;;;;;30.33;25.67;;;;;3.76;66.24;99902.84;6146247;23;45538;-75
2022/12/09 09:49:25;;;;;;;;;27.00;23.75;;;;;3.87;66.05;99918.66;6145011;23;46652;-77
2022/12/09 09:51:51;;;;;;;;;31.50;28.25;;;;;3.87;66.00;99921.22;6146587;23;46379;-76
2022/12/09 09:54:17;;;;;;;;;27.75;22.00;;;;;3.91;65.87;99924.47;6146352;23;45858;-75
2022/12/09 09:56:53;;;;;;;;;35.00;26.00;;;;;3.92;66.15;99911.44;6146987;23;45502;-76
2022/12/09 09:59:21;;;;;;;;;28.25;23.00;;;;;3.95;65.72;99907.84;6147242;23;46363;-76
2022/12/09 10:08:36;;;;;;;;;32.25;26.75;;;;;3.98;65.75;99894.72;6146569;23;45753;-75
2022/12/09 10:11:20;;;;;;;;;28.50;20.00;;;;;4.03;65.58;99908.25;6119713;23;47520;-78
2022/12/09 10:13:53;;;;;;;;;32.25;29.50;;;;;3.94;66.03;99893.25;6146456;23;45999;-78
2022/12/09 10:16:43;;;;;;;;;32.25;29.25;;;;;3.97;65.89;99893.91;6145765;23;45882;-77
2022/12/09 10:19:16;;;;;;;;;33.75;27.75;;;;;4.02;65.94;99897.06;6145522;23;45682;-77
2022/12/09 10:21:44;;;;;;;;;36.00;27.00;;;;;4.02;65.88;99891.03;6119438;23;48298;-77
2022/12/09 10:24:50;;;;;;;;;33.25;28.50;;;;;3.98;65.80;99895.56;6146752;23;46224;-76
2022/12/09 10:27:42;;;;;;;;;37.00;27.00;;;;;3.96;66.01;99883.59;5996534;23;46165;-75
2022/12/09 10:30:12;;;;;;;;;27.00;25.50;;;;;3.97;66.04;99890.47;5974554;23;45932;-76
2022/12/09 10:36:00;;;;;;;;;30.50;25.25;;;;;3.93;66.08;99876.84;5997148;23;45672;-75
2022/12/09 10:38:28;;;;;;;;;33.75;25.50;;;;;3.93;65.89;99884.63;5997978;23;45731;-76
2022/12/09 10:41:04;;;;;;;;;34.00;29.25;;;;;3.84;65.83;99861.78;5997639;23;45922;-76
2022/12/09 10:43:41;;;;;;;;;40.25;31.50;;;;;3.97;65.84;99877.50;5996778;23;45649;-76
2022/12/09 10:46:22;;;;;;;;;26.25;22.75;;;;;3.95;66.02;99875.00;5996876;23;46727;-76
2022/12/09 10:52:27;;;;;;;;;40.00;33.00;;;;;4.03;65.93;99879.75;5994564;23;46926;-76
2022/12/09 10:54:53;;;;;;;;;39.00;29.75;;;;;3.99;65.95;99873.94;5997114;23;46773;-76
2022/12/09 10:57:26;;;;;;;;;37.50;30.50;;;;;3.97;66.17;99865.38;5997328;23;45767;-75
2022/12/09 11:00:06;;;;;;;;;37.25;30.75;;;;;4.03;66.14;99875.41;5997099;23;46081;-75
2022/12/09 11:02:32;;;;;;;;;34.75;30.00;;;;;4.03;65.88;99861.63;6010987;23;45804;-76
2022/12/09 11:08:23;;;;;;;;;36.75;29.25;;;;;4.09;66.20;99863.88;6148110;23;46115;-76
2022/12/09 11:10:49;;;;;;;;;46.75;33.25;;;;;4.06;65.80;99857.09;6147958;23;45767;-78
2022/12/09 11:13:18;;;;;;;;;39.00;31.75;;;;;4.12;65.82;99861.09;6121488;23;46022;-77
2022/12/09 11:15:48;;;;;;;;;43.00;33.75;;;;;4.13;66.15;99873.97;6148662;23;47758;-78
2022/12/09 11:18:17;;;;;;;;;32.50;28.00;;;;;4.08;65.73;99849.22;6148653;23;46665;-77
2022/12/09 11:20:57;;;;;;;;;38.75;31.50;;;;;4.13;66.14;99861.00;6149022;23;45604;-76
2022/12/09 11:23:23;;;;;;;;;28.75;25.00;;;;;4.14;65.68;99857.50;6149579;23;45545;-76
2022/12/09 11:26:04;;;;;;;;;39.25;30.00;;;;;4.18;66.11;99852.97;6147261;23;46705;-77
2022/12/09 11:28:33;;;;;;;;;34.25;27.75;;;;;4.19;65.74;99846.88;6148142;23;45848;-76
2022/12/09 11:31:02;;;;;;;;;32.50;25.25;;;;;4.22;66.07;99833.72;6147423;23;45802;-78
2022/12/09 11:34:15;;;;;;;;;30.75;28.25;;;;;4.21;65.50;99835.47;6147822;23;45711;-77
2022/12/09 11:36:52;;;;;;;;;40.50;30.75;;;;;4.22;65.79;99831.13;6141613;23;46468;-77
2022/12/09 11:39:22;;;;;;;;;39.50;35.25;;;;;4.30;65.77;99844.50;6147602;23;46056;-77
2022/12/09 11:44:36;;;;;;;;;33.25;26.25;;;;;4.30;65.66;99836.72;6148171;23;45531;-76
2022/12/09 11:47:19;;;;;;;;;38.75;30.50;;;;;4.35;65.47;99837.28;6146954;23;46449;-76
2022/12/09 11:49:49;;;;;;;;;29.25;25.00;;;;;4.36;65.50;99836.38;6147885;23;46224;-76
2022/12/09 11:52:15;;;;;;;;;25.00;21.00;;;;;4.39;65.65;99843.13;6147212;23;45694;-76
2022/12/09 11:54:52;;;;;;;;;38.67;29.33;;;;;4.40;65.53;99834.44;6148082;23;45555;-75
2022/12/09 11:57:44;;;;;;;;;31.00;24.50;;;;;4.29;65.43;99805.69;6146915;23;46372;-77
2022/12/09 12:00:21;;;;;;;;;33.25;23.25;;;;;4.43;65.74;99829.03;6121036;23;46160;-76
2022/12/09 12:03:01;;;;;;;;;39.50;31.25;;;;;4.29;65.58;99795.31;6146880;23;45859;-76
2022/12/09 12:05:41;;;;;;;;;37.50;29.50;;;;;4.48;65.44;99830.44;6120844;23;45498;-75
2022/12/09 12:08:31;;;;;;;;;36.00;30.75;;;;;4.52;65.37;99831.97;6145811;23;46561;-76
2022/12/09 12:11:02;;;;;;;;;35.50;31.00;;;;;4.52;65.27;99828.53;6147620;23;46373;-75
2022/12/09 12:13:35;;;;;;;;;33.25;31.50;;;;;4.53;65.83;99830.22;6147211;23;45814;-76
2022/12/09 12:16:26;;;;;;;;;37.25;32.75;;;;;4.51;65.65;99829.44;6146811;23;45590;-77
2022/12/09 12:22:13;;;;;;;;;31.50;29.00;;;;;4.58;65.22;99839.38;6147549;23;45701;-75
2022/12/09 12:25:03;;;;;;;;;32.75;25.00;;;;;4.54;65.10;99829.25;6147260;23;45621;-75
2022/12/09 12:27:54;;;;;;;;;34.00;27.00;;;;;4.55;65.31;99836.13;6120457;23;45695;-77
2022/12/09 12:30:28;;;;;;;;;47.25;36.50;;;;;4.51;65.35;99826.84;6146755;23;46592;-77
2022/12/09 12:33:32;;;;;;;;;38.75;30.50;;;;;4.35;65.30;99801.00;6147495;23;46101;-78
2022/12/09 12:39:28;;;;;;;;;22.00;17.00;;;;;4.54;65.66;99831.84;6147280;23;45540;-78
2022/12/09 12:42:12;;;;;;;;;42.75;32.00;;;;;4.54;65.38;99827.50;6146719;23;47418;-77
2022/12/09 12:48:08;;;;;;;;;36.50;30.00;;;;;4.56;65.75;99828.25;6146538;23;45874;-76
2022/12/09 12:51:19;;;;;;;;;46.50;37.25;;;;;4.60;66.12;99829.72;6146768;23;46023;-76
2022/12/09 12:54:30;;;;;;;;;37.75;34.25;;;;;4.61;65.65;99815.84;6114584;23;46626;-77
2022/12/09 12:57:06;;;;;;;;;42.00;31.25;;;;;4.61;65.75;99817.59;6126326;23;46948;-77
2022/12/09 12:59:42;;;;;;;;;36.50;31.50;;;;;4.60;66.09;99824.53;6147130;23;45722;-75
2022/12/09 13:02:28;;;;;;;;;40.00;34.00;;;;;4.64;65.64;99822.63;6146914;23;45719;-75